Time;durP1;ratioP1;P1;durP2;ratioP2;P2;SDS_P1;SDS_P2;PMS_P1;PMS_P2;Temp;Humidity;BMP_temperature;BMP_pressure;BME280_temperature;BME280_humidity;BME280_pressure;Samples;Min_cycle;Max_cycle;Signal;HPM_P1;HPM_P2
2021/12/18 00:01:49;;;;;;;12.15;8.18;;;;;;;3.46;85.87;100530.80;1773228;80;21244;-51
2021/12/18 00:04:59;;;;;;;12.13;8.30;;;;;;;3.45;85.72;100533.14;1771073;79;21729;-52
2021/12/18 00:08:06;;;;;;;13.93;8.40;;;;;;;3.42;85.79;100532.92;1770846;79;21248;-51
2021/12/18 00:11:14;;;;;;;12.95;8.38;;;;;;;3.45;85.88;100536.72;1770838;80;21224;-52
2021/12/18 00:14:23;;;;;;;11.65;8.00;;;;;;;3.46;85.71;100537.08;1770711;79;21217;-52
2021/12/18 00:17:32;;;;;;;12.78;8.43;;;;;;;3.44;85.60;100539.55;1770850;80;21351;-52
2021/12/18 00:20:38;;;;;;;15.10;9.13;;;;;;;3.43;85.54;100547.28;1753230;81;21308;-52
2021/12/18 00:23:46;;;;;;;12.85;7.92;;;;;;;3.44;85.49;100546.31;1770735;81;21201;-51
2021/12/18 00:26:53;;;;;;;15.43;9.33;;;;;;;3.41;85.38;100543.36;1771298;80;21198;-50
2021/12/18 00:29:59;;;;;;;11.60;8.15;;;;;;;3.40;85.36;100549.77;1771117;80;21213;-52
2021/12/18 00:33:05;;;;;;;12.65;8.03;;;;;;;3.40;85.41;100543.48;1771113;80;21351;-51
2021/12/18 00:36:09;;;;;;;13.03;8.38;;;;;;;3.44;85.41;100547.16;1784977;80;21836;-52
2021/12/18 00:39:18;;;;;;;14.23;8.48;;;;;;;3.46;85.30;100545.67;1770865;81;21260;-52
2021/12/18 00:45:44;;;;;;;15.20;9.88;;;;;;;3.57;85.38;100546.52;1771148;81;21335;-50
2021/12/18 00:48:49;;;;;;;13.90;9.53;;;;;;;3.65;85.25;100545.87;1764357;80;21390;-51
2021/12/18 00:51:54;;;;;;;13.62;7.55;;;;;;;3.69;85.01;100548.70;1771274;80;21217;-51
2021/12/18 00:55:00;;;;;;;11.12;8.28;;;;;;;3.72;84.77;100545.25;1771325;80;21339;-50
2021/12/18 00:58:05;;;;;;;11.85;8.68;;;;;;;3.73;84.48;100541.54;1772618;80;21201;-51
2021/12/18 01:01:13;;;;;;;14.35;9.05;;;;;;;3.71;84.28;100540.80;1771535;80;21208;-51
2021/12/18 01:04:19;;;;;;;14.73;9.78;;;;;;;3.70;84.07;100547.22;1771601;80;21233;-51
2021/12/18 01:07:31;;;;;;;12.53;9.38;;;;;;;3.70;84.08;100547.22;1771372;80;21264;-50
2021/12/18 01:11:19;;;;;;;14.00;10.08;;;;;;;3.73;83.97;100551.50;1771414;81;21256;-51
2021/12/18 01:24:03;;;;;;;13.48;8.70;;;;;;;3.58;83.40;100567.20;1771226;81;21375;-52
2021/12/18 01:27:10;;;;;;;11.05;7.85;;;;;;;3.46;83.48;100570.90;1771125;81;21244;-52
2021/12/18 01:30:17;;;;;;;12.68;8.25;;;;;;;3.44;83.71;100567.45;1771512;80;21332;-52
2021/12/18 01:33:24;;;;;;;10.70;7.47;;;;;;;3.44;83.78;100574.73;1771520;80;21236;-50
2021/12/18 01:36:31;;;;;;;9.55;7.10;;;;;;;3.40;83.76;100570.05;1773099;80;21328;-51
2021/12/18 01:39:36;;;;;;;11.53;7.87;;;;;;;3.38;83.85;100573.38;1771106;81;21213;-51
2021/12/18 01:46:03;;;;;;;11.80;8.10;;;;;;;3.18;83.88;100584.97;1771515;81;21292;-52
2021/12/18 01:52:19;;;;;;;10.88;7.37;;;;;;;3.12;84.28;100571.95;1760311;80;21174;-51
2021/12/18 01:55:23;;;;;;;13.43;9.35;;;;;;;3.14;84.46;100579.94;1771643;79;21786;-51
2021/12/18 01:58:33;;;;;;;12.95;8.43;;;;;;;3.12;84.50;100590.88;1771341;80;21213;-51
2021/12/18 02:01:38;;;;;;;13.35;8.08;;;;;;;3.13;84.44;100583.13;1771253;80;21204;-52
2021/12/18 02:04:45;;;;;;;12.20;8.43;;;;;;;3.09;84.40;100587.07;1771216;81;21308;-52
2021/12/18 02:07:54;;;;;;;13.62;7.83;;;;;;;3.06;84.41;100590.87;1784829;80;21150;-51
2021/12/18 02:19:30;;;;;;;11.68;8.43;;;;;;;3.08;84.45;100588.03;1759200;80;21841;-51
2021/12/18 02:20:55;;;;;;;13.00;8.65;;;;;;;3.03;84.31;100595.66;1771449;81;21339;-51
2021/12/18 02:24:05;;;;;;;11.25;7.62;;;;;;;2.97;84.08;100598.85;1771594;80;21236;-51
2021/12/18 02:27:10;;;;;;;13.03;8.18;;;;;;;2.91;84.13;100598.00;1771138;80;21244;-52
2021/12/18 02:30:20;;;;;;;10.72;7.92;;;;;;;2.85;84.06;100612.02;1771465;80;21187;-52
2021/12/18 02:33:24;;;;;;;10.48;7.17;;;;;;;2.79;84.16;100610.64;1771223;81;21605;-52
2021/12/18 02:36:31;;;;;;;9.80;7.97;;;;;;;2.75;84.27;100611.00;1771110;80;21303;-51
2021/12/18 02:42:45;;;;;;;14.87;8.50;;;;;;;2.79;84.45;100616.05;1771249;80;21567;-52
2021/12/18 02:45:54;;;;;;;12.53;8.15;;;;;;;2.84;84.47;100618.38;1771156;80;21189;-52
2021/12/18 02:48:59;;;;;;;10.75;8.15;;;;;;;2.86;84.42;100626.75;1770851;80;21248;-53
2021/12/18 02:52:05;;;;;;;14.73;7.75;;;;;;;2.85;84.29;100621.47;1771054;80;21233;-51
2021/12/18 02:55:11;;;;;;;13.78;8.70;;;;;;;2.83;84.25;100619.38;1771115;80;21386;-51
2021/12/18 02:58:19;;;;;;;14.95;9.23;;;;;;;2.79;84.13;100632.77;1719768;83;21660;-52
2021/12/18 03:01:29;;;;;;;12.55;7.87;;;;;;;2.77;84.21;100636.08;1720188;83;21241;-52
2021/12/18 03:04:36;;;;;;;12.70;7.17;;;;;;;2.81;84.17;100633.48;1720386;83;21704;-51
2021/12/18 03:07:43;;;;;;;11.88;7.45;;;;;;;2.83;84.11;100638.30;1720121;83;21679;-51
2021/12/18 03:22:26;;;;;;;11.08;7.40;;;;;;;3.00;83.95;100637.33;1770828;80;21218;-51
2021/12/18 03:27:28;;;;;;;12.68;7.47;;;;;;;2.87;83.59;100654.66;1770930;80;21171;-51
2021/12/18 03:30:34;;;;;;;13.00;7.50;;;;;;;2.81;83.50;100651.06;1771548;80;21248;-51
2021/12/18 03:33:40;;;;;;;10.58;6.90;;;;;;;2.78;83.62;100646.77;1771516;80;21193;-50
2021/12/18 03:36:46;;;;;;;11.60;7.62;;;;;;;2.76;83.71;100651.42;1770841;80;21366;-52
2021/12/18 03:39:52;;;;;;;15.03;7.78;;;;;;;2.77;83.75;100659.92;1771114;80;21853;-51
2021/12/18 03:42:58;;;;;;;12.63;7.30;;;;;;;2.76;83.70;100665.42;1770968;79;21276;-51
2021/12/18 03:46:05;;;;;;;15.68;7.95;;;;;;;2.76;83.73;100660.88;1770933;80;21189;-51
2021/12/18 03:49:11;;;;;;;13.03;8.55;;;;;;;2.78;83.75;100658.94;1770880;81;21219;-50
2021/12/18 03:52:16;;;;;;;13.43;7.70;;;;;;;2.79;83.63;100666.05;1770940;81;21208;-52
2021/12/18 03:55:22;;;;;;;14.60;7.95;;;;;;;2.79;83.58;100666.56;1770737;81;21208;-51
2021/12/18 03:58:27;;;;;;;13.22;7.42;;;;;;;2.81;83.63;100675.38;1772922;79;21208;-50
2021/12/18 04:01:33;;;;;;;13.22;7.78;;;;;;;2.82;83.53;100679.83;1770887;81;21194;-51
2021/12/18 04:04:38;;;;;;;12.03;7.78;;;;;;;2.82;83.36;100670.38;1770941;80;21402;-51
2021/12/18 04:07:49;;;;;;;10.80;7.20;;;;;;;2.81;83.12;100671.33;1770888;80;21177;-51
2021/12/18 04:10:59;;;;;;;12.25;7.87;;;;;;;2.81;83.16;100686.20;1772154;80;21544;-52
2021/12/18 04:14:04;;;;;;;14.65;7.50;;;;;;;2.82;83.10;100688.78;1784992;79;21343;-51
2021/12/18 04:17:09;;;;;;;12.15;8.10;;;;;;;2.87;83.00;100691.99;1770860;81;21224;-52
2021/12/18 04:20:18;;;;;;;11.93;8.38;;;;;;;2.89;82.81;100695.92;1771058;81;21209;-53
2021/12/18 04:23:26;;;;;;;12.00;7.40;;;;;;;2.91;82.80;100705.66;1771013;81;21221;-53
2021/12/18 04:26:32;;;;;;;11.50;7.25;;;;;;;2.97;82.74;100707.01;1770844;81;21773;-50
2021/12/18 04:29:38;;;;;;;10.35;6.70;;;;;;;2.94;82.42;100714.01;1771282;80;21394;-51
2021/12/18 04:32:44;;;;;;;11.73;7.37;;;;;;;2.90;82.39;100707.97;1770694;81;21651;-51
2021/12/18 04:35:51;;;;;;;13.95;7.83;;;;;;;2.92;82.46;100714.61;1770711;81;21705;-51
2021/12/18 04:38:57;;;;;;;11.55;7.95;;;;;;;2.95;82.36;100720.64;1770872;81;21213;-51
2021/12/18 04:42:04;;;;;;;13.88;8.20;;;;;;;2.92;82.11;100729.00;1770993;81;21173;-51
2021/12/18 04:45:10;;;;;;;11.10;7.22;;;;;;;2.92;82.10;100735.76;1771004;81;21195;-51
2021/12/18 04:48:18;;;;;;;13.08;8.30;;;;;;;2.90;82.04;100740.92;1770997;80;21816;-51
2021/12/18 04:51:25;;;;;;;13.10;7.60;;;;;;;2.88;81.81;100741.53;1771123;80;21233;-51
2021/12/18 04:54:36;;;;;;;12.10;7.17;;;;;;;2.80;81.69;100746.18;1770850;80;21229;-50
2021/12/18 04:57:42;;;;;;;12.18;7.08;;;;;;;2.78;81.79;100744.08;1771269;80;21590;-49
2021/12/18 05:00:49;;;;;;;13.80;8.30;;;;;;;2.78;81.97;100741.38;1701420;84;21476;-51
2021/12/18 05:03:54;;;;;;;15.55;8.13;;;;;;;2.81;81.92;100748.38;1737047;82;21222;-52
2021/12/18 05:07:04;;;;;;;9.18;6.67;;;;;;;2.80;81.95;100746.18;1737006;82;21203;-53
2021/12/18 05:10:12;;;;;;;10.08;7.33;;;;;;;2.82;82.04;100746.06;1732833;82;21287;-50
2021/12/18 05:13:18;;;;;;;13.65;8.35;;;;;;;2.82;82.05;100748.25;1736533;82;21207;-53
2021/12/18 05:16:24;;;;;;;12.13;7.45;;;;;;;2.83;82.17;100749.13;1732551;81;21188;-50
2021/12/18 05:19:30;;;;;;;9.90;7.00;;;;;;;2.80;82.10;100748.89;1736211;81;21210;-53
2021/12/18 05:22:34;;;;;;;14.98;7.75;;;;;;;2.78;82.23;100747.26;1736817;82;21242;-50
2021/12/18 05:25:41;;;;;;;11.43;7.33;;;;;;;2.81;82.34;100760.05;1701205;84;21375;-52
2021/12/18 05:28:51;;;;;;;11.95;7.47;;;;;;;2.83;82.50;100759.45;1700712;82;21223;-52
2021/12/18 05:31:58;;;;;;;11.00;7.47;;;;;;;2.88;82.57;100759.10;1700932;83;21407;-52
2021/12/18 05:35:03;;;;;;;10.70;7.42;;;;;;;2.89;82.67;100768.92;1753066;81;21634;-51
2021/12/18 05:38:08;;;;;;;12.90;8.08;;;;;;;2.96;82.74;100771.54;1756139;81;21534;-52
2021/12/18 05:41:14;;;;;;;11.18;7.47;;;;;;;3.02;82.70;100774.63;1757179;81;21259;-52
2021/12/18 05:44:21;;;;;;;12.25;7.97;;;;;;;3.06;82.57;100778.81;1756953;81;21264;-52
2021/12/18 05:47:26;;;;;;;11.78;7.58;;;;;;;3.10;82.44;100783.50;1727124;82;21816;-52
2021/12/18 05:50:34;;;;;;;10.28;7.47;;;;;;;3.11;82.21;100790.62;1732389;82;21168;-52
2021/12/18 05:53:41;;;;;;;10.93;6.70;;;;;;;3.11;82.18;100787.91;1735418;81;21286;-53
2021/12/18 05:56:47;;;;;;;10.20;6.58;;;;;;;3.12;82.05;100790.14;1730531;81;21837;-52
2021/12/18 05:59:52;;;;;;;11.45;7.37;;;;;;;3.08;81.98;100793.56;1759327;80;21544;-53
2021/12/18 06:02:58;;;;;;;8.73;6.35;;;;;;;3.08;82.04;100802.55;1755135;81;21251;-53
2021/12/18 06:06:03;;;;;;;14.58;7.67;;;;;;;3.12;82.04;100805.89;1763060;81;21181;-52
2021/12/18 06:09:10;;;;;;;11.48;7.55;;;;;;;3.15;82.02;100808.35;1764858;81;21730;-52
2021/12/18 06:12:15;;;;;;;13.28;7.65;;;;;;;3.19;82.06;100811.17;1767467;80;21208;-52
2021/12/18 06:15:21;;;;;;;13.93;8.63;;;;;;;3.22;81.93;100819.05;1761573;80;21816;-52
2021/12/18 06:18:30;;;;;;;11.48;7.55;;;;;;;3.23;81.92;100815.38;1768940;80;21225;-52
2021/12/18 06:21:36;;;;;;;12.35;7.17;;;;;;;3.24;81.80;100816.22;1767529;80;21181;-52
2021/12/18 06:24:40;;;;;;;13.45;8.13;;;;;;;3.21;81.67;100822.75;1768335;80;21197;-52
2021/12/18 06:27:48;;;;;;;20.85;8.78;;;;;;;3.20;81.85;100817.45;1767968;80;21248;-52
2021/12/18 06:30:56;;;;;;;20.20;11.25;;;;;;;3.25;81.91;100823.37;1737585;82;21185;-53
2021/12/18 06:34:01;;;;;;;13.62;8.58;;;;;;;3.28;81.94;100824.02;1747689;81;21201;-52
2021/12/18 06:37:06;;;;;;;13.08;6.37;;;;;;;3.33;81.77;100831.25;1768650;80;21236;-53
2021/12/18 06:40:15;;;;;;;11.43;6.58;;;;;;;3.34;81.55;100827.59;1769499;81;21720;-53
2021/12/18 06:43:21;;;;;;;8.95;5.78;;;;;;;3.34;81.38;100827.59;1783174;80;21213;-52
2021/12/18 06:46:29;;;;;;;8.05;4.78;;;;;;;3.33;81.05;100824.48;1770870;80;21825;-52
2021/12/18 06:49:38;;;;;;;7.15;4.90;;;;;;;3.31;80.81;100832.36;1770138;80;21216;-52
2021/12/18 06:52:46;;;;;;;7.45;4.78;;;;;;;3.27;80.64;100833.09;1770143;80;21603;-52
2021/12/18 06:55:51;;;;;;;8.55;5.12;;;;;;;3.30;80.77;100834.71;1750133;80;21773;-53
2021/12/18 06:58:57;;;;;;;8.48;5.25;;;;;;;3.29;80.40;100832.97;1747737;80;21699;-52
2021/12/18 07:02:03;;;;;;;9.05;6.10;;;;;;;3.21;80.27;100828.16;1732853;81;21208;-52
2021/12/18 07:05:07;;;;;;;7.42;5.40;;;;;;;3.19;80.33;100835.52;1734682;82;21270;-52
2021/12/18 07:08:11;;;;;;;7.42;4.42;;;;;;;3.20;80.46;100839.97;1734663;82;21736;-52
2021/12/18 07:11:16;;;;;;;8.08;5.28;;;;;;;3.26;80.47;100834.08;1747165;80;21744;-52
2021/12/18 07:14:22;;;;;;;11.73;8.43;;;;;;;3.27;80.31;100836.31;1745509;79;21362;-52
2021/12/18 07:17:27;;;;;;;12.58;8.05;;;;;;;3.31;80.38;100838.65;1734369;82;21207;-52
2021/12/18 07:20:33;;;;;;;13.78;10.18;;;;;;;3.37;80.27;100844.06;1734631;82;21191;-53
2021/12/18 07:23:40;;;;;;;11.20;7.50;;;;;;;3.37;80.08;100846.28;1733949;82;21573;-53
2021/12/18 07:26:47;;;;;;;7.97;5.58;;;;;;;3.39;80.08;100842.11;1734367;82;21708;-51
2021/12/18 07:29:55;;;;;;;13.32;8.85;;;;;;;3.41;80.06;100844.20;1741364;80;21165;-52
2021/12/18 07:33:02;;;;;;;13.13;8.20;;;;;;;3.39;79.90;100844.81;1769249;79;21734;-51
2021/12/18 07:36:08;;;;;;;10.72;7.37;;;;;;;3.37;79.95;100854.88;1769500;81;21214;-55
2021/12/18 07:39:17;;;;;;;11.40;8.00;;;;;;;3.34;79.90;100853.30;1769785;81;21216;-51
2021/12/18 07:42:24;;;;;;;10.80;7.25;;;;;;;3.27;79.87;100854.73;1770299;80;21335;-52
2021/12/18 07:45:33;;;;;;;10.98;6.62;;;;;;;3.26;80.17;100865.67;1770622;81;21181;-51
2021/12/18 07:48:36;;;;;;;7.75;5.17;;;;;;;3.27;80.38;100864.71;1770951;80;21209;-51
2021/12/18 07:51:44;;;;;;;8.28;5.70;;;;;;;3.34;80.42;100878.13;1770419;81;21197;-53
2021/12/18 07:54:51;;;;;;;8.15;5.70;;;;;;;3.32;80.45;100876.89;1740262;80;21226;-53
2021/12/18 07:57:56;;;;;;;7.92;5.83;;;;;;;3.30;80.33;100886.95;1740100;82;21217;-52
2021/12/18 08:01:01;;;;;;;8.30;5.20;;;;;;;3.24;80.30;100886.08;1746335;81;21802;-52
2021/12/18 08:04:06;;;;;;;8.70;5.87;;;;;;;3.22;80.45;100892.09;1705265;82;22145;-53
2021/12/18 08:07:12;;;;;;;8.23;5.00;;;;;;;3.19;80.44;100890.97;1713500;82;21204;-53
2021/12/18 08:10:18;;;;;;;9.73;6.05;;;;;;;3.20;80.50;100888.66;1685418;84;21575;-52
2021/12/18 08:13:26;;;;;;;10.32;6.60;;;;;;;3.23;80.44;100883.02;1700084;84;21948;-53
2021/12/18 08:16:31;;;;;;;12.28;6.85;;;;;;;3.20;80.06;100869.72;1729171;82;21180;-53
2021/12/18 08:19:38;;;;;;;8.15;5.05;;;;;;;3.18;79.85;100882.97;1735621;82;21215;-53
2021/12/18 08:22:43;;;;;;;7.03;4.83;;;;;;;3.21;79.84;100880.91;1732771;82;21454;-53
2021/12/18 08:25:49;;;;;;;7.78;4.12;;;;;;;3.24;79.68;100869.84;1732943;82;21729;-53
2021/12/18 08:28:55;;;;;;;8.40;3.70;;;;;;;3.25;79.51;100876.12;1717819;82;21733;-52
2021/12/18 08:32:00;;;;;;;8.05;4.15;;;;;;;3.23;79.39;100880.30;1734685;81;21189;-52
2021/12/18 08:35:06;;;;;;;6.35;3.77;;;;;;;3.22;79.46;100874.50;1734939;82;22057;-52
2021/12/18 08:38:11;;;;;;;4.67;3.20;;;;;;;3.21;79.10;100867.38;1735490;82;21732;-52
2021/12/18 08:41:21;;;;;;;4.10;2.70;;;;;;;3.18;78.42;100868.09;1718984;82;21564;-52
2021/12/18 08:44:27;;;;;;;6.17;3.25;;;;;;;3.20;78.25;100867.02;1707284;82;21208;-52
2021/12/18 08:47:33;;;;;;;5.87;2.83;;;;;;;3.22;77.92;100856.92;1713896;82;21710;-52
2021/12/18 08:50:39;;;;;;;5.08;2.40;;;;;;;3.25;77.46;100863.95;1715958;82;21279;-52
2021/12/18 08:53:44;;;;;;;4.15;2.60;;;;;;;3.21;77.08;100857.91;1733945;81;21278;-51
2021/12/18 08:56:51;;;;;;;5.15;2.25;;;;;;;3.15;77.01;100855.69;1734918;82;21160;-52
2021/12/18 08:59:57;;;;;;;4.90;2.83;;;;;;;3.11;76.45;100852.83;1735717;81;21263;-52
2021/12/18 09:03:04;;;;;;;5.22;2.80;;;;;;;3.06;76.59;100857.72;1744506;79;21264;-52
2021/12/18 09:06:12;;;;;;;4.87;2.95;;;;;;;3.08;76.67;100866.10;1742720;80;21761;-52
2021/12/18 09:09:18;;;;;;;5.05;2.95;;;;;;;3.11;76.71;100865.00;1762058;79;21215;-51
2021/12/18 09:12:26;;;;;;;4.97;3.22;;;;;;;3.16;76.84;100870.92;1769090;80;21197;-53
2021/12/18 09:15:31;;;;;;;4.22;2.52;;;;;;;3.22;76.74;100869.09;1768658;81;21734;-53
2021/12/18 09:18:37;;;;;;;4.95;2.87;;;;;;;3.30;76.41;100863.13;1765407;81;21613;-53
2021/12/18 09:21:47;;;;;;;4.70;2.98;;;;;;;3.36;76.17;100868.05;1768842;81;21176;-52
2021/12/18 09:24:53;;;;;;;3.95;2.47;;;;;;;3.38;75.46;100867.45;1769678;81;21279;-53
2021/12/18 09:28:00;;;;;;;4.28;2.30;;;;;;;3.35;74.92;100875.30;1739026;82;21591;-53
2021/12/18 09:31:07;;;;;;;6.90;3.65;;;;;;;3.33;74.63;100864.23;1737568;82;21188;-52
2021/12/18 09:34:15;;;;;;;4.72;3.02;;;;;;;3.34;74.65;100868.66;1750978;81;21237;-57
2021/12/18 09:37:23;;;;;;;3.30;2.20;;;;;;;3.38;74.88;100861.52;1749669;79;21184;-52
2021/12/18 09:40:29;;;;;;;5.60;2.40;;;;;;;3.43;74.66;100880.98;1766163;79;21197;-52
2021/12/18 09:43:36;;;;;;;3.98;2.87;;;;;;;3.39;74.43;100868.69;1768505;80;22054;-52
2021/12/18 09:46:42;;;;;;;3.55;2.45;;;;;;;3.43;74.64;100869.28;1756034;79;21522;-52
2021/12/18 09:49:50;;;;;;;3.62;2.20;;;;;;;3.49;74.62;100880.50;1741401;81;21220;-52
2021/12/18 09:52:55;;;;;;;3.15;2.12;;;;;;;3.55;74.31;100871.89;1761964;81;21232;-52
2021/12/18 09:56:04;;;;;;;3.22;2.22;;;;;;;3.54;73.81;100867.95;1769901;80;22036;-51
2021/12/18 09:59:14;;;;;;;5.12;2.60;;;;;;;3.56;73.52;100877.70;1769570;80;21264;-54
2021/12/18 10:02:20;;;;;;;4.67;2.10;;;;;;;3.59;73.54;100869.34;1758729;81;21831;-52
2021/12/18 10:05:43;;;;;;;5.65;2.75;;;;;;;3.66;73.27;100877.84;1767935;80;21216;-52
2021/12/18 10:08:52;;;;;;;3.60;2.20;;;;;;;3.63;73.05;100866.75;1769354;80;21464;-53
2021/12/18 10:12:21;;;;;;;4.00;2.40;;;;;;;3.56;72.63;100868.23;1756150;81;21539;-52
2021/12/18 10:15:25;;;;;;;;;;;;;;;3.46;72.64;100872.62;1739478;81;21189;-53
2021/12/18 10:18:31;;;;;;;4.47;2.47;;;;;;;3.49;72.87;100878.30;1769754;81;20240;-53
2021/12/18 10:21:39;;;;;;;4.78;1.98;;;;;;;3.52;72.96;100864.53;1743014;81;21694;-53
2021/12/18 10:24:47;;;;;;;3.92;2.25;;;;;;;3.61;72.93;100867.86;1769642;81;21558;-53
2021/12/18 10:28:10;;;;;;;4.28;2.20;;;;;;;3.62;72.24;100870.93;1766558;80;21219;-54
2021/12/18 10:31:11;;;;;;;5.00;1.62;;;;;;;3.60;72.22;100868.86;1746530;80;21343;-53
2021/12/18 10:34:30;;;;;;;6.03;2.77;;;;;;;3.53;71.85;100872.53;1750400;81;21247;-51
2021/12/18 10:37:37;;;;;;;5.30;2.50;;;;;;;3.45;71.92;100883.08;1770446;81;21312;-52
2021/12/18 10:40:52;;;;;;;3.70;2.33;;;;;;;3.34;71.44;100874.94;1770268;81;21197;-52
2021/12/18 10:44:21;;;;;;;4.30;1.90;;;;;;;3.24;71.72;100877.97;1769681;81;21256;-51
2021/12/18 10:47:25;;;;;;;2.45;1.80;;;;;;;3.17;71.77;100877.20;1770488;80;21181;-53
2021/12/18 10:50:54;;;;;;;2.60;1.37;;;;;;;3.13;71.87;100868.45;1769892;81;21757;-53
2021/12/18 10:54:14;;;;;;;3.65;1.32;;;;;;;3.17;71.97;100879.43;1770779;80;21346;-53
2021/12/18 10:57:29;;;;;;;3.20;1.10;;;;;;;3.02;72.41;100874.69;1759965;80;21375;-53
2021/12/18 11:00:48;;;;;;;1.90;1.17;;;;;;;2.77;73.26;100869.89;1742099;81;21232;-54
2021/12/18 11:03:58;;;;;;;9.13;4.97;;;;;;;2.57;73.83;100873.22;1750495;81;21200;-54
2021/12/18 11:07:04;;;;;;;5.90;3.33;;;;;;;2.51;74.25;100863.71;1748272;81;21283;-52
2021/12/18 11:13:38;;;;;;;4.35;2.60;;;;;;;2.59;74.58;100865.36;1739861;82;21597;-52
2021/12/18 11:13:45;;;;;;;4.17;2.65;;;;;;;2.68;74.55;100862.48;1672791;85;21593;-52
2021/12/18 11:16:52;;;;;;;4.67;2.62;;;;;;;2.75;74.25;100855.61;1677752;85;21212;-53
2021/12/18 11:19:58;;;;;;;4.80;2.10;;;;;;;2.74;73.74;100853.90;1676927;85;21232;-53
2021/12/18 11:23:03;;;;;;;3.50;2.52;;;;;;;2.71;73.57;100863.59;1676973;85;21263;-53
2021/12/18 11:26:09;;;;;;;4.05;2.30;;;;;;;2.67;73.68;100860.25;1681751;84;21288;-53
2021/12/18 11:29:30;;;;;;;2.70;2.05;;;;;;;2.67;73.84;100861.60;1698634;84;21232;-52
2021/12/18 11:32:40;;;;;;;5.20;2.87;;;;;;;2.69;73.83;100862.36;1670642;85;21335;-52
2021/12/18 11:35:47;;;;;;;3.85;2.37;;;;;;;2.69;73.72;100858.30;1677447;83;21705;-52
2021/12/18 11:38:55;;;;;;;3.00;1.67;;;;;;;2.67;73.75;100867.48;1738870;82;21801;-52
2021/12/18 11:42:06;;;;;;;2.87;1.20;;;;;;;2.69;73.88;100868.24;1738891;82;21199;-53
2021/12/18 11:45:14;;;;;;;2.62;1.80;;;;;;;2.71;73.47;100869.00;1739332;82;21196;-52
2021/12/18 11:48:20;;;;;;;5.25;2.85;;;;;;;2.66;73.42;100859.02;1739511;82;21304;-53
2021/12/18 11:51:29;;;;;;;3.02;2.10;;;;;;;2.67;73.21;100859.38;1739347;82;21235;-52
2021/12/18 11:54:54;;;;;;;4.72;2.35;;;;;;;2.62;72.83;100859.73;1739713;82;21212;-51
2021/12/18 11:58:04;;;;;;;4.70;2.27;;;;;;;2.60;72.93;100871.64;1754135;81;21441;-54
2021/12/18 12:01:22;;;;;;;4.30;2.60;;;;;;;2.59;72.97;100872.59;1728155;82;21785;-54
2021/12/18 12:04:31;;;;;;;8.50;5.08;;;;;;;2.55;72.93;100876.00;1696249;82;21195;-52
2021/12/18 12:07:37;;;;;;;7.00;4.30;;;;;;;2.56;73.18;100864.72;1692907;84;21273;-53
2021/12/18 12:14:13;;;;;;;7.30;4.72;;;;;;;2.64;73.37;100870.42;1703149;83;21236;-55
2021/12/18 12:17:27;;;;;;;9.33;4.75;;;;;;;2.64;73.50;100873.99;1728068;82;21354;-53
2021/12/18 12:20:53;;;;;;;11.40;5.53;;;;;;;2.66;73.61;100874.72;1704337;83;21226;-53
2021/12/18 12:24:10;;;;;;;5.65;3.40;;;;;;;2.64;73.31;100868.59;1727559;82;22038;-53
2021/12/18 12:27:38;;;;;;;7.30;4.40;;;;;;;2.66;73.46;100871.17;1703914;83;21197;-53
2021/12/18 12:30:55;;;;;;;4.75;3.20;;;;;;;2.76;73.62;100869.49;1726851;82;21752;-53
2021/12/18 12:34:10;;;;;;;5.08;3.22;;;;;;;2.87;73.49;100869.58;1727424;82;21221;-53
2021/12/18 12:37:37;;;;;;;4.67;2.80;;;;;;;2.90;73.12;100876.95;1705533;84;21185;-53
2021/12/18 12:40:45;;;;;;;5.83;2.40;;;;;;;2.82;72.55;100874.47;1728588;82;21200;-53
2021/12/18 12:43:52;;;;;;;3.98;2.50;;;;;;;2.70;72.08;100879.41;1706938;83;21258;-53
2021/12/18 12:47:27;;;;;;;7.90;2.72;;;;;;;2.60;72.14;100875.69;1704074;82;21733;-53
2021/12/18 12:50:35;;;;;;;7.90;3.02;;;;;;;2.54;72.14;100888.28;1689205;85;21302;-53
2021/12/18 12:53:57;;;;;;;7.30;3.58;;;;;;;2.49;72.36;100887.27;1704051;83;21235;-53
2021/12/18 12:57:30;;;;;;;5.40;2.45;;;;;;;2.47;72.57;100882.49;1689499;85;21248;-53
2021/12/18 13:00:40;;;;;;;6.53;3.17;;;;;;;2.45;72.28;100887.14;1685466;83;21292;-53
2021/12/18 13:04:00;;;;;;;4.08;2.85;;;;;;;2.37;72.41;100895.41;1698528;84;21382;-53
2021/12/18 13:07:14;;;;;;;4.92;2.85;;;;;;;2.33;72.80;100884.47;1701487;81;21262;-53
2021/12/18 13:10:43;;;;;;;4.35;2.50;;;;;;;2.31;73.03;100896.73;1684378;84;21236;-53
2021/12/18 13:13:53;;;;;;;4.25;2.40;;;;;;;2.32;72.99;100889.47;1709159;84;21231;-53
2021/12/18 13:17:00;;;;;;;4.12;2.47;;;;;;;2.36;72.42;100890.99;1708451;84;21204;-53
2021/12/18 13:20:13;;;;;;;5.15;3.00;;;;;;;2.37;72.03;100888.66;1708581;84;21754;-53
2021/12/18 13:23:21;;;;;;;6.35;3.30;;;;;;;2.38;71.49;100898.00;1708291;84;21232;-53
2021/12/18 13:26:46;;;;;;;4.65;2.47;;;;;;;2.35;70.34;100890.59;1708804;84;21479;-53
2021/12/18 13:29:52;;;;;;;4.72;2.95;;;;;;;2.36;69.98;100893.70;1709349;84;21227;-53
2021/12/18 13:33:11;;;;;;;9.28;5.05;;;;;;;2.41;70.53;100891.53;1709579;84;21257;-53
2021/12/18 13:36:17;;;;;;;9.08;5.05;;;;;;;2.46;71.12;100878.52;1709992;84;21215;-53
2021/12/18 13:39:30;;;;;;;5.78;3.58;;;;;;;2.49;71.60;100883.73;1710160;84;21277;-53
2021/12/18 13:42:35;;;;;;;5.40;3.12;;;;;;;2.51;72.00;100869.59;1710633;84;21844;-53
2021/12/18 13:45:43;;;;;;;6.12;2.65;;;;;;;2.55;72.42;100883.27;1710313;84;21264;-53
2021/12/18 13:48:52;;;;;;;4.78;2.98;;;;;;;2.53;72.62;100878.45;1683848;83;21387;-52
2021/12/18 13:52:02;;;;;;;9.10;4.25;;;;;;;2.53;72.86;100878.45;1672298;84;21190;-56
2021/12/18 13:55:07;;;;;;;8.70;4.65;;;;;;;2.50;73.11;100884.09;1675284;84;21323;-52
2021/12/18 13:58:28;;;;;;;11.30;5.30;;;;;;;2.47;73.34;100879.79;1743472;80;21293;-52
2021/12/18 14:01:35;;;;;;;9.18;4.90;;;;;;;2.41;73.36;100882.07;1753967;81;21338;-54
2021/12/18 14:04:42;;;;;;;15.95;8.53;;;;;;;2.37;73.53;100881.91;1744933;81;21347;-54
2021/12/18 14:07:50;;;;;;;15.38;7.60;;;;;;;2.35;73.53;100894.65;1757529;80;21860;-53
2021/12/18 14:10:58;;;;;;;8.55;5.15;;;;;;;2.33;73.42;100890.71;1717767;82;21204;-53
2021/12/18 14:14:16;;;;;;;9.98;5.72;;;;;;;2.31;73.33;100888.63;1707552;82;21215;-53
2021/12/18 14:17:22;;;;;;;6.83;4.10;;;;;;;2.33;73.48;100891.22;1721386;82;21169;-52
2021/12/18 14:20:30;;;;;;;11.80;6.28;;;;;;;2.40;73.60;100884.37;1698916;84;21289;-53
2021/12/18 14:23:44;;;;;;;7.92;4.78;;;;;;;2.45;73.54;100893.02;1749993;80;21228;-52
2021/12/18 14:27:05;;;;;;;11.20;6.28;;;;;;;2.44;73.49;100884.55;1728345;81;21976;-52
2021/12/18 14:30:10;;;;;;;8.10;5.40;;;;;;;2.42;73.62;100887.84;1733354;82;21593;-52
2021/12/18 14:33:18;;;;;;;11.10;6.42;;;;;;;2.41;73.76;100888.83;1733910;81;21263;-52
2021/12/18 14:36:52;;;;;;;8.80;4.47;;;;;;;2.39;73.99;100897.05;1705825;84;21199;-52
2021/12/18 14:40:02;;;;;;;6.53;3.92;;;;;;;2.39;74.10;100901.57;1706415;82;21231;-52
2021/12/18 14:43:18;;;;;;;6.70;4.00;;;;;;;2.43;74.40;100904.41;1711854;82;21227;-54
2021/12/18 14:46:27;;;;;;;6.90;3.95;;;;;;;2.46;74.41;100894.25;1742168;80;21705;-53
2021/12/18 14:49:35;;;;;;;12.03;7.20;;;;;;;2.51;74.40;100897.97;1766376;80;21251;-53
2021/12/18 14:53:03;;;;;;;10.30;5.35;;;;;;;2.49;74.30;100889.13;1736370;81;21176;-54
2021/12/18 14:56:09;;;;;;;13.35;7.37;;;;;;;2.50;74.34;100901.66;1716624;82;21201;-53
2021/12/18 14:59:25;;;;;;;9.98;5.60;;;;;;;2.51;74.30;100902.02;1743508;81;21247;-52
2021/12/18 15:02:30;;;;;;;6.78;4.87;;;;;;;2.49;74.13;100899.42;1760891;81;21199;-53
2021/12/18 15:05:57;;;;;;;9.48;5.40;;;;;;;2.44;74.11;100895.35;1742687;81;21255;-53
2021/12/18 15:09:13;;;;;;;8.80;5.90;;;;;;;2.41;74.22;100904.52;1738759;78;21219;-54
2021/12/18 15:12:21;;;;;;;6.53;4.05;;;;;;;2.37;74.20;100900.81;1759012;80;21181;-53
2021/12/18 15:15:27;;;;;;;5.97;3.33;;;;;;;2.34;74.36;100897.86;1719109;82;21382;-53
2021/12/18 15:18:34;;;;;;;5.55;3.58;;;;;;;2.35;74.44;100898.70;1767535;79;21366;-52
2021/12/18 15:21:39;;;;;;;7.37;4.20;;;;;;;2.36;74.52;100898.59;1719223;82;21180;-53
2021/12/18 15:24:47;;;;;;;7.30;4.35;;;;;;;2.37;74.55;100903.52;1740445;82;21454;-52
2021/12/18 15:27:53;;;;;;;6.53;3.50;;;;;;;2.36;74.49;100903.15;1769791;80;21184;-52
2021/12/18 15:31:06;;;;;;;5.87;3.83;;;;;;;2.36;74.67;100905.84;1770485;80;21173;-52